Minerva Atlantica — ZCPR7 — position and weather

sailwx.info

Track history (hours):
 
Tides and Currents Weather Stations Pressure Air Temp Water Temp Dewpoint Dewpoint Depression Visibility Wind Speed Wind Dir Waves Ship Positions

Minerva Atlantica

Last reported at 2018-Feb-20 20:11 UTC. Time now 2018-Feb-22 22:14 UTC.
Position N 36°38' E 013°59'.

Length 250 m; draft 8.2 m.

Type: Ship. MMSI: 319161000.

Date/timePositionNaut miles runAvg speedWind from/ knotsBaromVisibWave heightAir tempDewpointWater temp
2018-Feb-20 20:11N 36°38' E 013°59'210.2
2018-Feb-20 19:59N 36°37' E 014°02'510.0
2018-Feb-20 19:30N 36°36' E 014°08'5 9.9
2018-Feb-20 19:00N 36°34' E 014°13'5 9.9
2018-Feb-20 18:30N 36°32' E 014°19'5 9.8
2018-Feb-20 18:00N 36°29' E 014°24'5 9.8
2018-Feb-20 17:31N 36°28' E 014°30'5 9.5
2018-Feb-20 17:00N 36°27' E 014°36'5 9.6
2018-Feb-20 16:30N 36°27' E 014°42'5 9.5
2018-Feb-20 15:59N 36°27' E 014°48'75 2.7
2018-Feb-19 11:46N 37°17' E 015°57'2 4.3
2018-Feb-19 11:23N 37°19' E 015°57'2 4.6
2018-Feb-19 10:55N 37°21' E 015°58'5 0.9
2018-Feb-19 05:08N 37°26' E 016°00'0 0.9
2018-Feb-19 05:00N 37°26' E 015°60'1 1.0
2018-Feb-19 04:20N 37°25' E 015°60'2 1.2
2018-Feb-19 02:48N 37°24' E 015°59'0 1.4
2018-Feb-19 02:28N 37°23' E 015°59'1 1.5
2018-Feb-19 01:30N 37°22' E 015°59'1 1.4
2018-Feb-19 01:00N 37°21' E 015°59'1 1.3
2018-Feb-19 00:26N 37°20' E 015°59'5 1.9
2018-Feb-18 21:46N 37°24' E 015°55'0 1.6
2018-Feb-18 21:30N 37°24' E 015°56'1 0.6
2018-Feb-18 20:20N 37°24' E 015°56'0 0.7
2018-Feb-18 19:59N 37°23' E 015°56'0 0.7
2018-Feb-18 19:25N 37°23' E 015°56'0 0.7
2018-Feb-18 19:00N 37°23' E 015°57'0 0.8
2018-Feb-18 18:30N 37°22' E 015°57'1 1.0
2018-Feb-18 17:37N 37°22' E 015°57'0 1.1
2018-Feb-18 17:30N 37°21' E 015°58'14 2.4
2018-Feb-18 11:40N 37°26' E 016°14'15 0.9
2018-Feb-17 18:11N 37°23' E 015°56'1 3.0
2018-Feb-17 18:00N 37°23' E 015°55'3 6.0
2018-Feb-17 17:27N 37°21' E 015°52'4 5.8
2018-Feb-17 16:42N 37°20' E 015°47'3 5.8
2018-Feb-17 16:12N 37°18' E 015°44'1 5.8
2018-Feb-17 16:00N 37°18' E 015°42'5 5.9
2018-Feb-17 15:10N 37°15' E 015°37'3 1.1
2018-Feb-17 12:04N 37°14' E 015°33'1 1.4
2018-Feb-17 11:38N 37°13' E 015°33'14 0.7
2018-Feb-16 13:51N 37°17' E 015°50'3 5.5
2018-Feb-16 13:20N 37°16' E 015°47'2 5.2
2018-Feb-16 12:59N 37°14' E 015°45'10 2.7
2018-Feb-16 09:22N 37°08' E 015°37'  
2018-Feb-10 20:23N 37°20' E 016°06'  
Track history (hours):
 
Tides and Currents Weather Stations Pressure Air Temp Water Temp Dewpoint Dewpoint Depression Visibility Wind Speed Wind Dir Waves Ship Positions

Minerva Atlantica

Last reported at 2018-Feb-20 20:11 UTC. Time now 2018-Feb-22 22:14 UTC.
Position N 36°38' E 013°59'.

Length 250 m; draft 8.2 m.

Type: Ship. MMSI: 319161000.

Date/timePositionNaut miles runAvg speedWind from/ knotsBaromVisibWave heightAir tempDewpointWater temp
2018-Feb-20 20:11N 36°38' E 013°59'210.2
2018-Feb-20 19:59N 36°37' E 014°02'510.0
2018-Feb-20 19:30N 36°36' E 014°08'5 9.9
2018-Feb-20 19:00N 36°34' E 014°13'5 9.9
2018-Feb-20 18:30N 36°32' E 014°19'5 9.8
2018-Feb-20 18:00N 36°29' E 014°24'5 9.8
2018-Feb-20 17:31N 36°28' E 014°30'5 9.5
2018-Feb-20 17:00N 36°27' E 014°36'5 9.6
2018-Feb-20 16:30N 36°27' E 014°42'5 9.5
2018-Feb-20 15:59N 36°27' E 014°48'75 2.7
2018-Feb-19 11:46N 37°17' E 015°57'2 4.3
2018-Feb-19 11:23N 37°19' E 015°57'2 4.6
2018-Feb-19 10:55N 37°21' E 015°58'5 0.9
2018-Feb-19 05:08N 37°26' E 016°00'0 0.9
2018-Feb-19 05:00N 37°26' E 015°60'1 1.0
2018-Feb-19 04:20N 37°25' E 015°60'2 1.2
2018-Feb-19 02:48N 37°24' E 015°59'0 1.4
2018-Feb-19 02:28N 37°23' E 015°59'1 1.5
2018-Feb-19 01:30N 37°22' E 015°59'1 1.4
2018-Feb-19 01:00N 37°21' E 015°59'1 1.3
2018-Feb-19 00:26N 37°20' E 015°59'5 1.9
2018-Feb-18 21:46N 37°24' E 015°55'0 1.6
2018-Feb-18 21:30N 37°24' E 015°56'1 0.6
2018-Feb-18 20:20N 37°24' E 015°56'0 0.7
2018-Feb-18 19:59N 37°23' E 015°56'0 0.7
2018-Feb-18 19:25N 37°23' E 015°56'0 0.7
2018-Feb-18 19:00N 37°23' E 015°57'0 0.8
2018-Feb-18 18:30N 37°22' E 015°57'1 1.0
2018-Feb-18 17:37N 37°22' E 015°57'0 1.1
2018-Feb-18 17:30N 37°21' E 015°58'14 2.4
2018-Feb-18 11:40N 37°26' E 016°14'15 0.9
2018-Feb-17 18:11N 37°23' E 015°56'1 3.0
2018-Feb-17 18:00N 37°23' E 015°55'3 6.0
2018-Feb-17 17:27N 37°21' E 015°52'4 5.8
2018-Feb-17 16:42N 37°20' E 015°47'3 5.8
2018-Feb-17 16:12N 37°18' E 015°44'1 5.8
2018-Feb-17 16:00N 37°18' E 015°42'5 5.9
2018-Feb-17 15:10N 37°15' E 015°37'3 1.1
2018-Feb-17 12:04N 37°14' E 015°33'1 1.4
2018-Feb-17 11:38N 37°13' E 015°33'14 0.7
2018-Feb-16 13:51N 37°17' E 015°50'3 5.5
2018-Feb-16 13:20N 37°16' E 015°47'2 5.2
2018-Feb-16 12:59N 37°14' E 015°45'10 2.7
2018-Feb-16 09:22N 37°08' E 015°37'  
2018-Feb-10 20:23N 37°20' E 016°06'  

Dump ship's entire track history